Time;durP1;ratioP1;P1;durP2;ratioP2;P2;SDS_P1;SDS_P2;PMS_P1;PMS_P2;Temp;Humidity;BMP_temperature;BMP_pressure;BME280_temperature;BME280_humidity;BME280_pressure;Samples;Min_cycle;Max_cycle;Signal;HPM_P1;HPM_P2
2024/04/04 00:01:20;;;;;;;4.93;1.13;;;;;;;;;;5044044;28;20057;-59
2024/04/04 00:03:47;;;;;;;3.95;0.95;;;;;;;;;;5052176;28;20060;-59
2024/04/04 00:06:13;;;;;;;5.55;1.35;;;;;;;;;;5044402;28;20049;-59
2024/04/04 00:08:39;;;;;;;5.30;1.55;;;;;;;;;;5051934;28;20055;-59
2024/04/04 00:11:09;;;;;;;5.50;1.48;;;;;;;;;;5044060;28;20057;-59
2024/04/04 00:13:36;;;;;;;4.55;1.30;;;;;;;;;;5052271;28;20045;-59
2024/04/04 00:16:02;;;;;;;5.65;1.40;;;;;;;;;;5047311;28;20398;-59
2024/04/04 00:18:30;;;;;;;4.65;1.50;;;;;;;;;;5056450;28;20052;-59
2024/04/04 00:20:56;;;;;;;7.43;1.70;;;;;;;;;;5056236;28;20053;-59
2024/04/04 00:23:23;;;;;;;4.70;1.35;;;;;;;;;;5056037;28;20056;-59
2024/04/04 00:25:48;;;;;;;5.80;1.20;;;;;;;;;;5047716;28;20402;-59
2024/04/04 00:28:15;;;;;;;3.90;1.10;;;;;;;;;;5055463;28;20045;-59
2024/04/04 00:30:41;;;;;;;6.15;1.60;;;;;;;;;;5047717;28;20459;-59
2024/04/04 00:33:08;;;;;;;3.97;1.40;;;;;;;;;;5055586;28;20132;-59
2024/04/04 00:35:35;;;;;;;4.53;1.15;;;;;;;;;;5047800;28;20058;-59
2024/04/04 00:38:02;;;;;;;4.07;1.40;;;;;;;;;;5055524;28;20049;-59
2024/04/04 00:40:34;;;;;;;3.45;1.20;;;;;;;;;;5047405;28;20080;-59
2024/04/04 00:43:00;;;;;;;6.22;1.50;;;;;;;;;;5055694;28;20049;-59
2024/04/04 00:45:26;;;;;;;3.65;1.20;;;;;;;;;;5047950;28;20053;-59
2024/04/04 00:47:53;;;;;;;5.57;1.67;;;;;;;;;;5055611;28;20057;-59
2024/04/04 00:50:19;;;;;;;4.95;1.20;;;;;;;;;;5037958;28;20049;-59
2024/04/04 00:52:47;;;;;;;3.65;1.20;;;;;;;;;;5055731;28;20505;-59
2024/04/04 00:55:13;;;;;;;6.28;1.17;;;;;;;;;;5047245;28;20052;-59
2024/04/04 00:57:40;;;;;;;5.22;1.52;;;;;;;;;;5055388;28;20399;-59
2024/04/04 01:00:06;;;;;;;4.32;1.25;;;;;;;;;;5047724;28;20056;-59
2024/04/04 01:02:33;;;;;;;5.88;1.30;;;;;;;;;;5046870;28;20055;-59
2024/04/04 01:04:59;;;;;;;5.80;1.60;;;;;;;;;;5048065;28;20050;-59
2024/04/04 01:07:28;;;;;;;4.68;1.17;;;;;;;;;;5053628;28;20053;-59
2024/04/04 01:09:55;;;;;;;3.05;1.20;;;;;;;;;;5048856;28;20387;-59
2024/04/04 01:12:22;;;;;;;5.40;1.33;;;;;;;;;;5053390;28;20406;-59
2024/04/04 01:14:47;;;;;;;5.03;1.40;;;;;;;;;;5049756;28;20049;-59
2024/04/04 01:17:14;;;;;;;6.85;1.55;;;;;;;;;;5051697;28;20051;-59
2024/04/04 01:19:40;;;;;;;5.95;1.20;;;;;;;;;;5050676;28;20060;-60
2024/04/04 01:22:07;;;;;;;3.78;1.45;;;;;;;;;;5051077;28;20132;-59
2024/04/04 01:24:34;;;;;;;8.30;2.10;;;;;;;;;;5051463;28;20053;-59
2024/04/04 01:27:01;;;;;;;8.05;1.60;;;;;;;;;;5049376;28;20075;-59
2024/04/04 01:29:26;;;;;;;3.92;1.20;;;;;;;;;;5051982;28;20217;-59
2024/04/04 01:31:53;;;;;;;7.38;1.58;;;;;;;;;;5048916;28;20411;-59
2024/04/04 01:34:20;;;;;;;5.28;1.27;;;;;;;;;;5053155;28;20053;-59
2024/04/04 01:36:46;;;;;;;5.00;1.23;;;;;;;;;;5048110;28;20056;-59
2024/04/04 01:39:13;;;;;;;5.82;1.35;;;;;;;;;;5053732;28;20049;-59
2024/04/04 01:41:43;;;;;;;5.93;1.13;;;;;;;;;;5047031;28;20059;-59
2024/04/04 01:44:10;;;;;;;6.35;1.65;;;;;;;;;;5054321;28;20056;-59
2024/04/04 01:46:36;;;;;;;7.15;1.65;;;;;;;;;;5046208;28;20049;-59
2024/04/04 01:49:06;;;;;;;5.30;1.43;;;;;;;;;;5054842;28;20091;-59
2024/04/04 01:51:32;;;;;;;6.38;1.65;;;;;;;;;;5054888;28;20053;-59
2024/04/04 01:53:58;;;;;;;7.00;1.67;;;;;;;;;;5054518;28;20501;-59
2024/04/04 01:56:24;;;;;;;4.28;1.40;;;;;;;;;;5046080;28;20053;-59
2024/04/04 01:58:52;;;;;;;7.70;1.70;;;;;;;;;;5054013;28;20056;-59
2024/04/04 02:01:18;;;;;;;6.53;1.42;;;;;;;;;;5046399;28;20053;-59
2024/04/04 02:03:45;;;;;;;4.68;1.20;;;;;;;;;;5054349;28;20458;-60
2024/04/04 02:06:11;;;;;;;2.78;1.05;;;;;;;;;;5045947;28;20053;-59
2024/04/04 02:08:38;;;;;;;4.82;1.48;;;;;;;;;;5053785;28;20049;-58
2024/04/04 02:11:04;;;;;;;5.13;1.50;;;;;;;;;;5045915;28;20053;-59
2024/04/04 02:13:30;;;;;;;5.55;1.65;;;;;;;;;;5053878;28;20059;-59
2024/04/04 02:15:58;;;;;;;4.32;1.20;;;;;;;;;;5045708;28;20056;-59
2024/04/04 02:18:25;;;;;;;4.13;1.10;;;;;;;;;;5054040;28;20474;-59
2024/04/04 02:20:51;;;;;;;5.25;1.70;;;;;;;;;;5045869;28;20049;-58
2024/04/04 02:23:17;;;;;;;2.97;1.23;;;;;;;;;;5053757;28;20044;-58
2024/04/04 02:25:43;;;;;;;5.60;1.25;;;;;;;;;;5053676;28;20501;-58
2024/04/04 02:28:10;;;;;;;5.65;1.40;;;;;;;;;;5053598;28;20056;-58
2024/04/04 02:30:36;;;;;;;3.40;1.17;;;;;;;;;;5045499;28;20060;-57
2024/04/04 02:33:05;;;;;;;4.28;1.40;;;;;;;;;;5053558;28;20505;-58
2024/04/04 02:35:31;;;;;;;2.92;1.20;;;;;;;;;;5045352;28;20475;-59
2024/04/04 02:37:57;;;;;;;8.05;1.60;;;;;;;;;;5052847;28;20106;-58
2024/04/04 02:40:23;;;;;;;4.82;1.10;;;;;;;;;;5045435;28;20079;-58
2024/04/04 02:42:50;;;;;;;4.13;1.35;;;;;;;;;;5053082;28;20506;-58
2024/04/04 02:45:16;;;;;;;4.53;1.45;;;;;;;;;;5044925;28;20054;-58
2024/04/04 02:47:43;;;;;;;4.50;1.20;;;;;;;;;;5052979;28;20056;-58
2024/04/04 02:50:10;;;;;;;5.50;1.02;;;;;;;;;;5053302;28;20398;-60
2024/04/04 02:52:37;;;;;;;2.70;1.00;;;;;;;;;;5053271;28;20060;-59
2024/04/04 02:55:03;;;;;;;4.57;1.23;;;;;;;;;;5045895;28;20057;-59
2024/04/04 02:57:29;;;;;;;4.10;1.55;;;;;;;;;;5052596;28;20061;-59
2024/04/04 02:59:55;;;;;;;3.50;1.00;;;;;;;;;;5047012;28;20057;-59
2024/04/04 03:02:22;;;;;;;5.15;1.23;;;;;;;;;;5051457;28;20053;-59
2024/04/04 03:04:48;;;;;;;2.67;1.00;;;;;;;;;;5047687;28;20061;-59
2024/04/04 03:07:16;;;;;;;4.55;1.00;;;;;;;;;;5050041;28;20513;-58
2024/04/04 03:09:42;;;;;;;3.92;1.20;;;;;;;;;;5048423;28;20064;-59
2024/04/04 03:12:09;;;;;;;3.92;0.98;;;;;;;;;;5049404;28;20123;-58
2024/04/04 03:14:35;;;;;;;3.40;1.00;;;;;;;;;;5049408;28;20053;-59
2024/04/04 03:17:01;;;;;;;3.35;1.02;;;;;;;;;;5048264;28;20495;-59
2024/04/04 03:19:27;;;;;;;3.92;1.30;;;;;;;;;;5049992;28;20410;-60
2024/04/04 03:21:54;;;;;;;3.83;1.20;;;;;;;;;;5046954;28;20128;-59
2024/04/04 03:24:21;;;;;;;3.75;1.30;;;;;;;;;;5052421;28;20399;-60
2024/04/04 03:26:48;;;;;;;5.25;1.20;;;;;;;;;;5052688;28;20049;-59
2024/04/04 03:29:14;;;;;;;3.92;1.55;;;;;;;;;;5051879;28;20060;-59
2024/04/04 03:31:40;;;;;;;4.90;1.10;;;;;;;;;;5044922;28;20056;-59
2024/04/04 03:34:06;;;;;;;4.57;1.35;;;;;;;;;;5052609;28;20064;-59
2024/04/04 03:36:33;;;;;;;3.63;1.15;;;;;;;;;;5052080;28;20084;-59
2024/04/04 03:39:00;;;;;;;4.32;1.45;;;;;;;;;;5052200;28;20045;-59
2024/04/04 03:41:28;;;;;;;2.78;0.93;;;;;;;;;;5044493;28;20053;-59
2024/04/04 03:43:55;;;;;;;2.25;0.93;;;;;;;;;;5052519;28;20068;-59
2024/04/04 03:46:21;;;;;;;3.55;1.10;;;;;;;;;;5044355;28;20056;-59
2024/04/04 03:48:47;;;;;;;1.70;0.80;;;;;;;;;;5051568;28;20139;-59
2024/04/04 03:51:13;;;;;;;5.88;1.45;;;;;;;;;;5051884;28;20053;-58
2024/04/04 03:53:40;;;;;;;3.30;1.20;;;;;;;;;;5052352;28;20084;-59
2024/04/04 03:56:06;;;;;;;2.78;1.23;;;;;;;;;;5043564;28;20090;-59
2024/04/04 03:58:34;;;;;;;3.20;1.02;;;;;;;;;;5052336;28;20092;-59
2024/04/04 04:01:00;;;;;;;8.13;1.85;;;;;;;;;;5044013;28;20402;-59
2024/04/04 04:03:27;;;;;;;6.45;1.90;;;;;;;;;;5052226;28;20076;-59
2024/04/04 04:05:52;;;;;;;5.13;1.48;;;;;;;;;;5044117;28;20394;-59
2024/04/04 04:08:19;;;;;;;10.07;1.92;;;;;;;;;;5051927;28;20052;-59
2024/04/04 04:10:45;;;;;;;8.68;2.05;;;;;;;;;;5044173;28;20053;-59
2024/04/04 04:13:13;;;;;;;4.82;2.00;;;;;;;;;;5052410;28;20045;-59
2024/04/04 04:15:40;;;;;;;4.47;1.90;;;;;;;;;;5043768;28;20053;-59
2024/04/04 04:18:07;;;;;;;4.18;1.80;;;;;;;;;;5051808;28;20506;-59
2024/04/04 04:23:21;;;;;;;4.03;1.50;;;;;;;;;;5058338;28;20049;-59
2024/04/04 04:25:48;;;;;;;4.85;1.40;;;;;;;;;;5044134;28;20402;-59
2024/04/04 04:28:14;;;;;;;3.42;1.45;;;;;;;;;;5052143;28;20053;-59
2024/04/04 04:30:42;;;;;;;6.40;2.00;;;;;;;;;;5043877;28;20131;-59
2024/04/04 04:33:08;;;;;;;5.72;1.75;;;;;;;;;;5052074;28;20410;-59
2024/04/04 04:35:34;;;;;;;3.35;1.60;;;;;;;;;;5044049;28;20092;-59
2024/04/04 04:38:00;;;;;;;2.38;1.35;;;;;;;;;;5051699;28;20445;-60
2024/04/04 04:40:27;;;;;;;3.78;1.20;;;;;;;;;;5043785;28;20050;-59
2024/04/04 04:42:53;;;;;;;3.72;1.35;;;;;;;;;;5051873;28;20057;-59
2024/04/04 04:45:20;;;;;;;2.40;1.13;;;;;;;;;;5043721;28;20049;-59
2024/04/04 04:47:47;;;;;;;3.42;1.48;;;;;;;;;;5051574;28;20064;-59
2024/04/04 04:50:14;;;;;;;2.83;1.23;;;;;;;;;;5051588;28;20057;-59
2024/04/04 04:52:40;;;;;;;2.95;1.50;;;;;;;;;;5052057;28;20387;-58
2024/04/04 04:55:07;;;;;;;3.47;1.77;;;;;;;;;;5043766;28;20195;-59
2024/04/04 04:57:32;;;;;;;5.68;1.42;;;;;;;;;;5043636;28;20506;-59
2024/04/04 04:59:59;;;;;;;3.17;1.60;;;;;;;;;;5044687;28;20058;-58
2024/04/04 05:02:25;;;;;;;2.40;1.30;;;;;;;;;;5053822;28;20506;-59
2024/04/04 05:04:53;;;;;;;3.53;1.70;;;;;;;;;;5049557;28;20147;-59
2024/04/04 05:07:19;;;;;;;4.40;1.52;;;;;;;;;;5053562;28;20498;-59
2024/04/04 05:09:47;;;;;;;4.18;1.40;;;;;;;;;;5050127;28;20136;-59
2024/04/04 05:12:13;;;;;;;4.25;1.30;;;;;;;;;;5052185;28;20053;-59
2024/04/04 05:14:40;;;;;;;2.00;1.20;;;;;;;;;;5050839;28;20049;-58
2024/04/04 05:17:06;;;;;;;5.90;1.95;;;;;;;;;;5051096;28;20045;-59
2024/04/04 05:19:33;;;;;;;3.20;1.20;;;;;;;;;;5055059;28;20083;-59
2024/04/04 05:22:01;;;;;;;3.20;1.40;;;;;;;;;;5054916;28;20140;-59
2024/04/04 05:24:27;;;;;;;3.42;1.35;;;;;;;;;;5052191;28;20068;-58
2024/04/04 05:26:53;;;;;;;2.97;1.27;;;;;;;;;;5048900;28;20163;-59
2024/04/04 05:29:20;;;;;;;3.75;1.33;;;;;;;;;;5053320;28;20473;-59
2024/04/04 05:31:46;;;;;;;2.25;1.23;;;;;;;;;;5048007;28;20064;-59
2024/04/04 05:34:14;;;;;;;3.78;1.50;;;;;;;;;;5054018;28;20132;-59
2024/04/04 05:36:40;;;;;;;2.22;1.13;;;;;;;;;;5046961;28;20060;-59
2024/04/04 05:39:08;;;;;;;3.22;1.30;;;;;;;;;;5054486;28;20048;-58
2024/04/04 05:41:34;;;;;;;2.75;1.27;;;;;;;;;;5046282;28;20053;-59
2024/04/04 05:44:01;;;;;;;2.65;1.13;;;;;;;;;;5054641;28;20398;-59
2024/04/04 05:46:27;;;;;;;3.53;1.33;;;;;;;;;;5054432;28;20406;-58
2024/04/04 05:48:54;;;;;;;3.92;1.30;;;;;;;;;;5054190;28;20147;-59
2024/04/04 05:51:20;;;;;;;2.30;1.13;;;;;;;;;;5054317;28;20053;-59
2024/04/04 05:53:46;;;;;;;2.25;1.27;;;;;;;;;;5053547;28;20114;-59
2024/04/04 05:56:14;;;;;;;3.95;1.20;;;;;;;;;;5054176;28;20053;-59
2024/04/04 05:58:40;;;;;;;4.40;1.30;;;;;;;;;;5054074;28;20053;-58
2024/04/04 06:01:06;;;;;;;2.92;1.15;;;;;;;;;;5054158;28;20497;-59
2024/04/04 06:03:34;;;;;;;2.90;1.30;;;;;;;;;;5053726;28;20087;-59
2024/04/04 06:06:01;;;;;;;2.58;1.30;;;;;;;;;;5054253;28;20060;-58
2024/04/04 06:08:27;;;;;;;2.45;1.20;;;;;;;;;;5053669;28;20053;-58
2024/04/04 06:10:53;;;;;;;2.58;1.27;;;;;;;;;;5053705;28;20136;-59
2024/04/04 06:13:21;;;;;;;3.60;1.20;;;;;;;;;;5053690;28;20191;-58
2024/04/04 06:15:51;;;;;;;3.40;1.10;;;;;;;;;;5053274;28;20049;-59
2024/04/04 06:18:18;;;;;;;4.40;1.45;;;;;;;;;;5052855;28;20052;-59
2024/04/04 06:20:44;;;;;;;2.75;1.35;;;;;;;;;;5053568;28;20056;-59
2024/04/04 06:23:11;;;;;;;3.92;1.40;;;;;;;;;;5053337;28;20510;-59
2024/04/04 06:25:37;;;;;;;4.93;1.67;;;;;;;;;;5053452;28;20056;-59
2024/04/04 06:28:04;;;;;;;2.83;1.90;;;;;;;;;;5053538;28;20387;-59
2024/04/04 06:30:31;;;;;;;7.40;1.98;;;;;;;;;;5053627;28;20053;-60
2024/04/04 06:32:58;;;;;;;4.65;2.65;;;;;;;;;;5053312;28;20053;-59
2024/04/04 06:35:24;;;;;;;5.00;2.10;;;;;;;;;;5053286;28;20053;-59
2024/04/04 06:37:50;;;;;;;4.47;2.00;;;;;;;;;;5053089;28;20521;-59
2024/04/04 06:40:16;;;;;;;3.88;2.40;;;;;;;;;;5052997;28;20048;-59
2024/04/04 06:42:43;;;;;;;4.63;1.88;;;;;;;;;;5052919;28;20049;-58
2024/04/04 06:45:09;;;;;;;4.28;2.03;;;;;;;;;;5052932;28;20080;-59
2024/04/04 06:53:43;;;;;;;4.80;1.55;;;;;;;;;;3996091;28;21780;-57
2024/04/04 06:56:10;;;;;;;5.20;1.80;;;;;;;;;;3976660;28;21800;-57
2024/04/04 06:58:36;;;;;;;5.30;2.40;;;;;;;;;;4358023;28;20045;-59
2024/04/04 07:01:03;;;;;;;6.22;1.70;;;;;;;;;;5052744;28;20059;-59
2024/04/04 07:03:30;;;;;;;3.50;2.13;;;;;;;;;;5052482;28;20063;-59
2024/04/04 07:05:56;;;;;;;4.55;1.83;;;;;;;;;;5052663;28;20052;-59
2024/04/04 07:08:22;;;;;;;4.50;1.90;;;;;;;;;;5052358;28;20056;-59
2024/04/04 07:10:50;;;;;;;4.00;2.17;;;;;;;;;;5052880;28;20063;-60
2024/04/04 07:13:19;;;;;;;3.38;1.77;;;;;;;;;;5052940;28;20422;-60
2024/04/04 07:15:44;;;;;;;6.50;2.10;;;;;;;;;;5052822;28;20053;-60
2024/04/04 07:18:11;;;;;;;3.10;1.98;;;;;;;;;;5052303;28;20056;-60
2024/04/04 07:20:37;;;;;;;3.30;1.80;;;;;;;;;;5053049;28;20053;-60
2024/04/04 07:23:04;;;;;;;4.28;2.10;;;;;;;;;;5052034;28;20509;-60
2024/04/04 07:25:30;;;;;;;2.90;1.70;;;;;;;;;;5052732;28;20057;-60
2024/04/04 07:28:00;;;;;;;2.75;1.60;;;;;;;;;;5052651;28;20048;-60
2024/04/04 07:30:28;;;;;;;4.53;1.98;;;;;;;;;;5052833;28;20049;-60
2024/04/04 07:32:54;;;;;;;6.47;1.88;;;;;;;;;;5052205;28;20053;-61
2024/04/04 07:35:21;;;;;;;4.82;2.20;;;;;;;;;;5052042;28;20048;-62
2024/04/04 07:37:46;;;;;;;11.90;3.08;;;;;;;;;;5052215;28;20124;-62
2024/04/04 07:40:13;;;;;;;4.07;1.80;;;;;;;;;;5052235;28;20051;-62
2024/04/04 07:42:39;;;;;;;7.30;2.47;;;;;;;;;;5052231;28;20052;-64
2024/04/04 07:45:10;;;;;;;25.88;3.13;;;;;;;;;;5051833;28;20128;-64
2024/04/04 07:47:36;;;;;;;6.95;2.58;;;;;;;;;;5052499;28;20049;-65
2024/04/04 07:50:07;;;;;;;6.22;3.33;;;;;;;;;;5052121;28;20387;-66
2024/04/04 07:52:33;;;;;;;7.95;2.55;;;;;;;;;;5052077;28;20064;-66
2024/04/04 07:55:00;;;;;;;6.47;2.25;;;;;;;;;;5051821;28;20437;-66
2024/04/04 07:57:25;;;;;;;5.45;2.83;;;;;;;;;;5052075;28;20120;-66
2024/04/04 07:59:53;;;;;;;6.55;3.03;;;;;;;;;;5051651;28;20510;-67
2024/04/04 08:02:20;;;;;;;5.80;3.28;;;;;;;;;;5051960;28;20504;-66
2024/04/04 08:04:47;;;;;;;4.63;1.98;;;;;;;;;;5051703;28;20056;-66
2024/04/04 08:07:13;;;;;;;4.65;1.88;;;;;;;;;;5052467;28;20056;-66
2024/04/04 08:09:39;;;;;;;3.33;1.60;;;;;;;;;;5051485;28;20053;-66
2024/04/04 08:12:06;;;;;;;4.10;1.42;;;;;;;;;;5051951;28;20053;-65
2024/04/04 08:14:33;;;;;;;2.88;1.45;;;;;;;;;;5051555;28;20044;-65
2024/04/04 08:16:59;;;;;;;5.10;1.90;;;;;;;;;;5051669;28;20049;-65
2024/04/04 08:19:27;;;;;;;5.38;1.45;;;;;;;;;;5051678;28;20053;-66
2024/04/04 08:21:53;;;;;;;7.85;1.85;;;;;;;;;;5051825;28;20064;-66
2024/04/04 08:24:20;;;;;;;3.17;1.48;;;;;;;;;;5051636;28;20053;-67
2024/04/04 08:26:46;;;;;;;10.75;2.30;;;;;;;;;;5051891;28;20052;-66
2024/04/04 08:29:14;;;;;;;9.07;1.38;;;;;;;;;;5051400;28;20052;-66
2024/04/04 08:31:40;;;;;;;3.65;1.45;;;;;;;;;;5051907;28;20053;-65
2024/04/04 08:34:07;;;;;;;3.10;1.42;;;;;;;;;;5051691;28;20053;-65
2024/04/04 08:36:34;;;;;;;8.40;1.63;;;;;;;;;;5053754;28;20053;-65
2024/04/04 08:39:02;;;;;;;5.65;1.42;;;;;;;;;;5055425;28;20060;-65
2024/04/04 08:41:28;;;;;;;5.88;1.80;;;;;;;;;;5055782;28;20057;-65
2024/04/04 08:43:56;;;;;;;6.68;1.88;;;;;;;;;;5055385;28;20473;-65
2024/04/04 08:46:22;;;;;;;3.35;1.42;;;;;;;;;;5054891;28;20048;-65
2024/04/04 08:48:50;;;;;;;4.45;1.30;;;;;;;;;;5055296;28;20041;-65
2024/04/04 08:51:19;;;;;;;13.23;1.85;;;;;;;;;;5054921;28;20414;-65
2024/04/04 08:53:47;;;;;;;4.28;1.30;;;;;;;;;;5055179;28;20509;-65
2024/04/04 08:56:13;;;;;;;5.88;1.67;;;;;;;;;;5055580;28;20060;-64
2024/04/04 08:58:40;;;;;;;19.38;2.25;;;;;;;;;;5054536;28;20055;-65
2024/04/04 09:01:06;;;;;;;5.30;1.30;;;;;;;;;;5055428;28;20487;-65
2024/04/04 09:03:33;;;;;;;2.67;1.55;;;;;;;;;;5055029;28;20049;-64
2024/04/04 09:06:00;;;;;;;5.95;1.83;;;;;;;;;;5055444;28;20053;-65
2024/04/04 09:08:29;;;;;;;4.35;2.17;;;;;;;;;;5055223;28;20064;-65
2024/04/04 09:10:59;;;;;;;3.20;2.10;;;;;;;;;;5055230;28;20060;-65
2024/04/04 09:13:26;;;;;;;4.88;1.73;;;;;;;;;;5054989;28;20466;-64
2024/04/04 09:15:59;;;;;;;5.38;1.85;;;;;;;;;;5055131;28;20053;-64
2024/04/04 09:18:25;;;;;;;2.95;1.40;;;;;;;;;;5054565;28;20053;-64
2024/04/04 09:20:52;;;;;;;2.83;1.88;;;;;;;;;;5055262;28;20053;-64
2024/04/04 09:23:18;;;;;;;3.90;1.88;;;;;;;;;;5054849;28;20053;-63
2024/04/04 09:25:45;;;;;;;2.42;1.55;;;;;;;;;;5054689;28;20053;-64
2024/04/04 09:28:19;;;;;;;5.20;1.77;;;;;;;;;;5054820;28;20048;-63
2024/04/04 09:30:48;;;;;;;3.08;1.85;;;;;;;;;;5054717;28;20056;-63
2024/04/04 09:33:14;;;;;;;3.17;2.13;;;;;;;;;;5054576;28;20053;-64
2024/04/04 09:35:42;;;;;;;3.22;1.23;;;;;;;;;;5054578;28;20049;-63
2024/04/04 09:38:09;;;;;;;2.55;1.20;;;;;;;;;;5054316;28;20056;-63
2024/04/04 09:40:37;;;;;;;2.28;1.10;;;;;;;;;;5054451;28;20078;-63
2024/04/04 09:43:03;;;;;;;2.15;1.02;;;;;;;;;;5054213;28;20075;-63
2024/04/04 09:45:31;;;;;;;2.03;0.88;;;;;;;;;;5054101;28;20057;-63
2024/04/04 09:47:57;;;;;;;2.78;1.27;;;;;;;;;;5053657;28;20049;-63
2024/04/04 09:50:24;;;;;;;2.58;1.20;;;;;;;;;;5054192;28;20075;-62
2024/04/04 09:52:50;;;;;;;3.08;2.08;;;;;;;;;;5054388;28;20053;-63
2024/04/04 09:55:19;;;;;;;5.00;3.28;;;;;;;;;;5053841;28;20056;-62
2024/04/04 09:57:45;;;;;;;2.53;1.30;;;;;;;;;;5053799;28;20053;-62
2024/04/04 10:00:16;;;;;;;2.15;1.55;;;;;;;;;;5054100;28;20501;-62
2024/04/04 10:02:51;;;;;;;2.95;2.40;;;;;;;;;;5054041;28;20061;-62
2024/04/04 10:05:18;;;;;;;2.95;2.13;;;;;;;;;;5054132;28;20067;-62
2024/04/04 10:07:44;;;;;;;3.08;1.95;;;;;;;;;;5053568;28;20048;-61
2024/04/04 10:10:15;;;;;;;3.50;1.50;;;;;;;;;;5054021;28;20402;-61
2024/04/04 10:12:42;;;;;;;3.67;1.80;;;;;;;;;;5053443;28;20064;-61
2024/04/04 10:15:09;;;;;;;3.35;1.60;;;;;;;;;;5053730;28;20397;-61
2024/04/04 10:17:40;;;;;;;2.47;1.42;;;;;;;;;;5053213;28;20383;-62
2024/04/04 10:20:10;;;;;;;2.25;0.90;;;;;;;;;;5053241;28;20056;-61
2024/04/04 10:22:36;;;;;;;1.95;1.17;;;;;;;;;;5053630;28;20053;-60
2024/04/04 10:25:03;;;;;;;1.95;1.02;;;;;;;;;;5052803;28;20059;-60
2024/04/04 10:27:29;;;;;;;1.95;0.88;;;;;;;;;;5053506;28;20402;-60
2024/04/04 10:29:56;;;;;;;1.73;0.85;;;;;;;;;;5053540;28;20070;-60
2024/04/04 10:32:22;;;;;;;2.30;0.90;;;;;;;;;;5053344;28;20053;-59
2024/04/04 10:34:58;;;;;;;3.17;1.05;;;;;;;;;;5053621;28;20053;-60
2024/04/04 10:37:26;;;;;;;2.50;1.20;;;;;;;;;;5053554;28;20049;-60
2024/04/04 10:39:52;;;;;;;2.92;1.30;;;;;;;;;;5053548;28;20116;-60
2024/04/04 10:42:21;;;;;;;2.53;1.20;;;;;;;;;;5053405;28;20482;-61
2024/04/04 10:44:49;;;;;;;2.92;1.20;;;;;;;;;;5052740;28;20057;-60
2024/04/04 10:47:16;;;;;;;4.15;1.30;;;;;;;;;;5053330;28;20053;-60
2024/04/04 10:49:42;;;;;;;3.38;1.10;;;;;;;;;;5052960;28;20048;-60
2024/04/04 10:52:09;;;;;;;2.53;1.15;;;;;;;;;;5052970;28;20060;-60
2024/04/04 10:54:37;;;;;;;2.22;1.17;;;;;;;;;;5052987;28;20474;-60
2024/04/04 10:57:04;;;;;;;2.00;0.93;;;;;;;;;;5053050;28;20056;-60
2024/04/04 10:59:29;;;;;;;2.95;1.00;;;;;;;;;;5051748;28;20088;-60
2024/04/04 11:01:56;;;;;;;4.68;1.13;;;;;;;;;;5053091;28;20049;-60
2024/04/04 11:04:23;;;;;;;2.70;1.20;;;;;;;;;;5053228;28;20063;-59
2024/04/04 11:06:51;;;;;;;2.50;1.05;;;;;;;;;;5052534;28;20049;-60
2024/04/04 11:09:20;;;;;;;3.45;1.15;;;;;;;;;;5052815;28;20053;-61
2024/04/04 11:11:48;;;;;;;3.63;1.17;;;;;;;;;;5053205;28;20056;-60
2024/04/04 11:14:14;;;;;;;6.40;1.20;;;;;;;;;;5052525;28;20053;-60
2024/04/04 11:16:41;;;;;;;2.13;0.93;;;;;;;;;;5053099;28;20044;-60
2024/04/04 11:19:08;;;;;;;3.97;1.20;;;;;;;;;;5052783;28;20052;-60
2024/04/04 11:21:35;;;;;;;3.42;1.08;;;;;;;;;;5052483;28;20418;-59
2024/04/04 11:24:01;;;;;;;4.00;1.25;;;;;;;;;;5052665;28;20076;-60
2024/04/04 11:26:28;;;;;;;3.38;1.45;;;;;;;;;;5052557;28;20053;-60
2024/04/04 11:28:58;;;;;;;4.47;1.23;;;;;;;;;;5052282;28;20056;-60
2024/04/04 11:31:25;;;;;;;2.92;0.90;;;;;;;;;;5052548;28;20059;-60
2024/04/04 11:33:51;;;;;;;3.05;0.82;;;;;;;;;;5052020;28;20080;-61
2024/04/04 11:36:18;;;;;;;3.13;1.20;;;;;;;;;;5051880;28;20486;-61
2024/04/04 11:38:43;;;;;;;3.47;1.20;;;;;;;;;;5052320;28;20395;-60
2024/04/04 11:41:10;;;;;;;3.42;1.35;;;;;;;;;;5052239;28;20048;-60
2024/04/04 11:43:36;;;;;;;3.85;1.10;;;;;;;;;;5052434;28;20052;-60
2024/04/04 11:46:07;;;;;;;4.25;1.52;;;;;;;;;;5052539;28;20060;-60
2024/04/04 11:48:33;;;;;;;4.03;1.52;;;;;;;;;;5052229;28;20049;-61
2024/04/04 11:50:59;;;;;;;4.45;1.38;;;;;;;;;;5052272;28;20049;-60
2024/04/04 11:53:25;;;;;;;2.70;1.00;;;;;;;;;;5052645;28;20459;-60
2024/04/04 11:55:54;;;;;;;4.32;1.45;;;;;;;;;;5052302;28;20106;-59
2024/04/04 11:58:20;;;;;;;3.88;1.00;;;;;;;;;;5051880;28;20049;-60
2024/04/04 12:00:47;;;;;;;3.25;1.15;;;;;;;;;;5052512;28;20056;-60
2024/04/04 12:03:14;;;;;;;3.00;1.00;;;;;;;;;;5052509;28;20061;-60
2024/04/04 12:05:42;;;;;;;2.03;1.00;;;;;;;;;;5052048;28;20052;-59
2024/04/04 12:08:08;;;;;;;2.53;1.10;;;;;;;;;;5052143;28;20049;-61
2024/04/04 12:10:35;;;;;;;1.80;0.73;;;;;;;;;;5054342;28;20059;-60
2024/04/04 12:13:00;;;;;;;3.33;0.93;;;;;;;;;;5056164;28;20419;-59
2024/04/04 12:15:29;;;;;;;2.92;0.70;;;;;;;;;;5056447;28;20052;-59
2024/04/04 12:20:38;;;;;;;2.38;1.00;;;;;;;;;;5055387;28;20394;-59
2024/04/04 12:23:05;;;;;;;4.10;1.20;;;;;;;;;;5055806;28;20491;-60
2024/04/04 12:25:32;;;;;;;2.90;1.10;;;;;;;;;;5055718;28;20057;-61
2024/04/04 12:27:58;;;;;;;2.08;0.70;;;;;;;;;;5055994;28;20044;-60
2024/04/04 12:30:24;;;;;;;4.70;0.90;;;;;;;;;;5056000;28;20053;-59
2024/04/04 12:32:51;;;;;;;2.22;0.90;;;;;;;;;;5055713;28;20048;-60
2024/04/04 12:35:17;;;;;;;3.40;1.10;;;;;;;;;;5055818;28;20049;-59
2024/04/04 12:37:45;;;;;;;3.78;1.90;;;;;;;;;;5055356;28;20422;-60
2024/04/04 12:40:11;;;;;;;3.08;1.42;;;;;;;;;;5055691;28;20045;-60
2024/04/04 12:42:38;;;;;;;2.80;0.95;;;;;;;;;;5055155;28;20413;-60
2024/04/04 12:45:04;;;;;;;4.10;1.10;;;;;;;;;;5055485;28;20057;-60
2024/04/04 12:47:31;;;;;;;2.72;0.90;;;;;;;;;;5055627;28;20478;-61
2024/04/04 12:49:57;;;;;;;3.78;0.90;;;;;;;;;;5055497;28;20045;-60
2024/04/04 12:52:24;;;;;;;3.47;1.00;;;;;;;;;;5055234;28;20067;-60
2024/04/04 12:54:51;;;;;;;3.47;0.90;;;;;;;;;;5055406;28;20064;-60
2024/04/04 12:57:18;;;;;;;2.63;1.13;;;;;;;;;;5055226;28;20059;-59
2024/04/04 12:59:44;;;;;;;5.65;1.35;;;;;;;;;;5054617;28;20045;-60
2024/04/04 13:02:11;;;;;;;3.30;1.33;;;;;;;;;;5054927;28;20455;-60
2024/04/04 13:04:36;;;;;;;5.60;1.40;;;;;;;;;;5055299;28;20053;-60
2024/04/04 13:07:04;;;;;;;5.70;1.70;;;;;;;;;;5054518;28;20059;-60
2024/04/04 13:09:29;;;;;;;5.00;1.33;;;;;;;;;;5054899;28;20057;-59
2024/04/04 13:11:59;;;;;;;7.40;3.38;;;;;;;;;;5054987;28;20045;-60
2024/04/04 13:14:25;;;;;;;;;;;;;;;;;;5055306;28;20418;-59
2024/04/04 13:16:52;;;;;;;5.90;1.60;;;;;;;;;;5055131;28;19922;-59
2024/04/04 13:19:18;;;;;;;5.28;1.67;;;;;;;;;;5055363;28;20049;-60
2024/04/04 13:21:45;;;;;;;6.72;1.70;;;;;;;;;;5054040;28;20494;-60
2024/04/04 13:24:10;;;;;;;4.60;1.77;;;;;;;;;;5054450;28;20053;-59
2024/04/04 13:26:37;;;;;;;5.07;1.48;;;;;;;;;;5054455;28;20501;-60
2024/04/04 13:29:04;;;;;;;7.78;1.92;;;;;;;;;;5054780;28;20414;-59
2024/04/04 13:31:31;;;;;;;6.20;1.90;;;;;;;;;;5054853;28;20048;-59
2024/04/04 13:33:57;;;;;;;5.60;1.40;;;;;;;;;;5055133;28;20056;-59
2024/04/04 13:36:24;;;;;;;4.30;1.33;;;;;;;;;;5055007;28;20064;-60
2024/04/04 13:38:50;;;;;;;6.20;1.77;;;;;;;;;;5054128;28;20076;-59
2024/04/04 13:41:16;;;;;;;4.65;1.45;;;;;;;;;;5054470;28;20051;-59
2024/04/04 13:43:42;;;;;;;6.30;1.75;;;;;;;;;;5054615;28;20482;-59
2024/04/04 13:46:10;;;;;;;6.25;1.80;;;;;;;;;;5054416;28;20052;-60
2024/04/04 13:48:38;;;;;;;7.75;1.77;;;;;;;;;;5054636;28;20060;-59
2024/04/04 13:51:05;;;;;;;4.90;1.85;;;;;;;;;;5054421;28;20064;-59
2024/04/04 13:53:31;;;;;;;3.72;1.63;;;;;;;;;;5053929;28;20053;-59
2024/04/04 13:55:57;;;;;;;4.30;1.30;;;;;;;;;;5054251;28;20052;-59
2024/04/04 13:58:23;;;;;;;5.60;1.50;;;;;;;;;;5053682;28;20060;-60
2024/04/04 14:00:50;;;;;;;5.78;1.50;;;;;;;;;;5053942;28;20153;-59
2024/04/04 14:03:17;;;;;;;6.78;1.73;;;;;;;;;;5054389;28;20064;-59
2024/04/04 14:05:44;;;;;;;3.92;1.40;;;;;;;;;;5054050;28;20061;-60
2024/04/04 14:08:10;;;;;;;4.20;1.85;;;;;;;;;;5053577;28;20053;-59
2024/04/04 14:10:37;;;;;;;5.07;1.63;;;;;;;;;;5054029;28;20493;-58
2024/04/04 14:13:03;;;;;;;5.45;1.40;;;;;;;;;;5054474;28;20056;-59
2024/04/04 14:15:30;;;;;;;4.82;1.55;;;;;;;;;;5053685;28;20052;-60
2024/04/04 14:17:56;;;;;;;4.25;1.45;;;;;;;;;;5053726;28;20049;-59
2024/04/04 14:20:24;;;;;;;4.03;1.30;;;;;;;;;;5053462;28;20048;-59
2024/04/04 14:22:50;;;;;;;5.28;1.70;;;;;;;;;;5053357;28;20049;-59
2024/04/04 14:25:17;;;;;;;5.53;1.70;;;;;;;;;;5053653;28;20059;-59
2024/04/04 14:27:43;;;;;;;6.88;2.08;;;;;;;;;;5053644;28;20060;-59
2024/04/04 14:30:10;;;;;;;6.07;1.95;;;;;;;;;;5053475;28;20049;-59
2024/04/04 14:32:38;;;;;;;6.03;1.80;;;;;;;;;;5045751;28;20500;-60
2024/04/04 14:35:05;;;;;;;4.68;1.50;;;;;;;;;;5053196;28;20053;-59
2024/04/04 14:37:33;;;;;;;5.28;1.60;;;;;;;;;;5053406;28;20491;-59
2024/04/04 14:39:59;;;;;;;3.15;1.65;;;;;;;;;;5053362;28;20075;-59
2024/04/04 14:42:26;;;;;;;4.55;1.48;;;;;;;;;;5053366;28;20053;-60
2024/04/04 14:44:53;;;;;;;4.40;1.60;;;;;;;;;;5052945;28;20068;-59
2024/04/04 14:47:19;;;;;;;9.20;2.00;;;;;;;;;;5053056;28;20056;-60
2024/04/04 14:49:47;;;;;;;6.78;1.60;;;;;;;;;;5053248;28;20045;-60
2024/04/04 14:52:13;;;;;;;10.35;2.03;;;;;;;;;;5053177;28;20052;-59